sensor_id;sensor_type;location;lat;lon;timestamp;P1;durP1;ratioP1;P2;durP2;ratioP2
32697;SDS011;19087;51.062;3.754;2022-07-11T00:02:11;8.52;;;4.03;;
32697;SDS011;19087;51.062;3.754;2022-07-11T00:04:41;8.18;;;3.53;;
32697;SDS011;19087;51.062;3.754;2022-07-11T00:07:08;6.28;;;3.80;;
32697;SDS011;19087;51.062;3.754;2022-07-11T00:09:34;5.82;;;3.60;;
32697;SDS011;19087;51.062;3.754;2022-07-11T00:12:00;6.72;;;3.13;;
32697;SDS011;19087;51.062;3.754;2022-07-11T00:14:28;6.53;;;3.58;;
32697;SDS011;19087;51.062;3.754;2022-07-11T00:16:54;6.88;;;3.80;;
32697;SDS011;19087;51.062;3.754;2022-07-11T00:19:20;7.03;;;3.70;;
32697;SDS011;19087;51.062;3.754;2022-07-11T00:21:47;7.90;;;4.18;;
32697;SDS011;19087;51.062;3.754;2022-07-11T00:24:13;8.32;;;4.28;;
32697;SDS011;19087;51.062;3.754;2022-07-11T00:26:39;10.02;;;4.60;;
32697;SDS011;19087;51.062;3.754;2022-07-11T00:29:05;9.40;;;4.35;;
32697;SDS011;19087;51.062;3.754;2022-07-11T00:31:31;7.60;;;4.20;;
32697;SDS011;19087;51.062;3.754;2022-07-11T00:33:57;12.20;;;4.10;;
32697;SDS011;19087;51.062;3.754;2022-07-11T00:36:23;7.78;;;4.85;;
32697;SDS011;19087;51.062;3.754;2022-07-11T00:38:49;6.80;;;4.38;;
32697;SDS011;19087;51.062;3.754;2022-07-11T00:41:15;5.57;;;4.20;;
32697;SDS011;19087;51.062;3.754;2022-07-11T00:43:42;8.65;;;5.50;;
32697;SDS011;19087;51.062;3.754;2022-07-11T00:46:08;7.95;;;5.43;;
32697;SDS011;19087;51.062;3.754;2022-07-11T00:48:35;10.98;;;5.40;;
32697;SDS011;19087;51.062;3.754;2022-07-11T00:51:02;10.82;;;6.10;;
32697;SDS011;19087;51.062;3.754;2022-07-11T00:53:28;7.25;;;5.88;;
32697;SDS011;19087;51.062;3.754;2022-07-11T00:55:55;6.28;;;5.68;;
32697;SDS011;19087;51.062;3.754;2022-07-11T00:58:22;14.77;;;7.38;;
32697;SDS011;19087;51.062;3.754;2022-07-11T01:00:48;10.27;;;6.70;;
32697;SDS011;19087;51.062;3.754;2022-07-11T01:03:14;12.13;;;7.03;;
32697;SDS011;19087;51.062;3.754;2022-07-11T01:05:40;13.70;;;7.57;;
32697;SDS011;19087;51.062;3.754;2022-07-11T01:08:06;8.48;;;6.38;;
32697;SDS011;19087;51.062;3.754;2022-07-11T01:10:32;7.88;;;5.68;;
32697;SDS011;19087;51.062;3.754;2022-07-11T01:12:58;10.68;;;5.68;;
32697;SDS011;19087;51.062;3.754;2022-07-11T01:15:24;7.53;;;5.03;;
32697;SDS011;19087;51.062;3.754;2022-07-11T01:17:50;7.75;;;5.25;;
32697;SDS011;19087;51.062;3.754;2022-07-11T01:20:18;7.78;;;5.30;;
32697;SDS011;19087;51.062;3.754;2022-07-11T01:22:54;7.10;;;5.20;;
32697;SDS011;19087;51.062;3.754;2022-07-11T01:25:22;14.88;;;5.65;;
32697;SDS011;19087;51.062;3.754;2022-07-11T01:28:04;6.63;;;5.05;;
32697;SDS011;19087;51.062;3.754;2022-07-11T01:30:33;9.18;;;5.00;;
32697;SDS011;19087;51.062;3.754;2022-07-11T01:32:59;7.22;;;4.90;;
32697;SDS011;19087;51.062;3.754;2022-07-11T01:35:26;7.57;;;5.45;;
32697;SDS011;19087;51.062;3.754;2022-07-11T01:37:53;8.73;;;5.50;;
32697;SDS011;19087;51.062;3.754;2022-07-11T01:40:18;8.98;;;5.28;;
32697;SDS011;19087;51.062;3.754;2022-07-11T01:42:45;8.38;;;5.22;;
32697;SDS011;19087;51.062;3.754;2022-07-11T01:45:11;11.43;;;5.93;;
32697;SDS011;19087;51.062;3.754;2022-07-11T01:47:37;8.73;;;6.53;;
32697;SDS011;19087;51.062;3.754;2022-07-11T01:50:03;9.25;;;6.95;;
32697;SDS011;19087;51.062;3.754;2022-07-11T01:52:30;10.02;;;7.60;;
32697;SDS011;19087;51.062;3.754;2022-07-11T01:54:55;11.20;;;7.70;;
32697;SDS011;19087;51.062;3.754;2022-07-11T01:57:21;11.27;;;6.40;;
32697;SDS011;19087;51.062;3.754;2022-07-11T01:59:47;8.20;;;5.50;;
32697;SDS011;19087;51.062;3.754;2022-07-11T02:02:13;10.52;;;6.32;;
32697;SDS011;19087;51.062;3.754;2022-07-11T02:04:39;7.68;;;5.63;;
32697;SDS011;19087;51.062;3.754;2022-07-11T02:07:05;8.30;;;6.18;;
32697;SDS011;19087;51.062;3.754;2022-07-11T02:09:31;8.88;;;5.60;;
32697;SDS011;19087;51.062;3.754;2022-07-11T02:11:57;9.13;;;5.80;;
32697;SDS011;19087;51.062;3.754;2022-07-11T02:14:22;7.75;;;5.32;;
32697;SDS011;19087;51.062;3.754;2022-07-11T02:16:48;6.80;;;5.43;;
32697;SDS011;19087;51.062;3.754;2022-07-11T02:19:14;9.40;;;5.88;;
32697;SDS011;19087;51.062;3.754;2022-07-11T02:21:41;11.93;;;6.53;;
32697;SDS011;19087;51.062;3.754;2022-07-11T02:24:06;10.70;;;6.00;;
32697;SDS011;19087;51.062;3.754;2022-07-11T02:26:33;11.23;;;6.50;;
32697;SDS011;19087;51.062;3.754;2022-07-11T02:28:59;7.55;;;5.85;;
32697;SDS011;19087;51.062;3.754;2022-07-11T02:31:25;9.15;;;6.15;;
32697;SDS011;19087;51.062;3.754;2022-07-11T02:33:51;7.70;;;5.75;;
32697;SDS011;19087;51.062;3.754;2022-07-11T02:36:17;9.57;;;6.60;;
32697;SDS011;19087;51.062;3.754;2022-07-11T02:38:43;9.52;;;7.03;;
32697;SDS011;19087;51.062;3.754;2022-07-11T02:41:08;9.38;;;5.70;;
32697;SDS011;19087;51.062;3.754;2022-07-11T02:43:34;14.85;;;6.72;;
32697;SDS011;19087;51.062;3.754;2022-07-11T02:46:00;9.18;;;6.78;;
32697;SDS011;19087;51.062;3.754;2022-07-11T02:48:26;10.90;;;6.70;;
32697;SDS011;19087;51.062;3.754;2022-07-11T02:50:52;8.70;;;6.47;;
32697;SDS011;19087;51.062;3.754;2022-07-11T02:53:18;11.07;;;7.03;;
32697;SDS011;19087;51.062;3.754;2022-07-11T02:55:44;12.25;;;7.57;;
32697;SDS011;19087;51.062;3.754;2022-07-11T02:58:10;7.57;;;6.22;;
32697;SDS011;19087;51.062;3.754;2022-07-11T03:00:36;11.40;;;6.75;;
32697;SDS011;19087;51.062;3.754;2022-07-11T03:03:01;9.88;;;7.20;;
32697;SDS011;19087;51.062;3.754;2022-07-11T03:05:28;11.23;;;8.75;;
32697;SDS011;19087;51.062;3.754;2022-07-11T03:07:54;12.65;;;8.98;;
32697;SDS011;19087;51.062;3.754;2022-07-11T03:10:19;11.82;;;7.95;;
32697;SDS011;19087;51.062;3.754;2022-07-11T03:12:48;11.07;;;8.65;;
32697;SDS011;19087;51.062;3.754;2022-07-11T03:15:14;12.05;;;8.95;;
32697;SDS011;19087;51.062;3.754;2022-07-11T03:17:40;13.60;;;9.82;;
32697;SDS011;19087;51.062;3.754;2022-07-11T03:20:06;11.65;;;8.35;;
32697;SDS011;19087;51.062;3.754;2022-07-11T03:22:32;11.88;;;7.88;;
32697;SDS011;19087;51.062;3.754;2022-07-11T03:24:58;14.05;;;8.88;;
32697;SDS011;19087;51.062;3.754;2022-07-11T03:27:25;11.40;;;8.95;;
32697;SDS011;19087;51.062;3.754;2022-07-11T03:29:51;10.30;;;9.05;;
32697;SDS011;19087;51.062;3.754;2022-07-11T03:32:17;11.15;;;8.90;;
32697;SDS011;19087;51.062;3.754;2022-07-11T03:34:45;10.85;;;9.73;;
32697;SDS011;19087;51.062;3.754;2022-07-11T03:37:32;9.80;;;8.80;;
32697;SDS011;19087;51.062;3.754;2022-07-11T03:39:58;17.23;;;9.40;;
32697;SDS011;19087;51.062;3.754;2022-07-11T03:42:24;12.80;;;9.20;;
32697;SDS011;19087;51.062;3.754;2022-07-11T03:44:50;13.32;;;9.25;;
32697;SDS011;19087;51.062;3.754;2022-07-11T03:47:16;15.55;;;8.52;;
32697;SDS011;19087;51.062;3.754;2022-07-11T03:49:42;12.48;;;8.75;;
32697;SDS011;19087;51.062;3.754;2022-07-11T03:52:08;11.02;;;9.20;;
32697;SDS011;19087;51.062;3.754;2022-07-11T03:54:34;9.68;;;8.48;;
32697;SDS011;19087;51.062;3.754;2022-07-11T03:57:00;9.70;;;8.00;;
32697;SDS011;19087;51.062;3.754;2022-07-11T03:59:25;12.05;;;8.30;;
32697;SDS011;19087;51.062;3.754;2022-07-11T04:01:51;17.17;;;8.68;;
32697;SDS011;19087;51.062;3.754;2022-07-11T04:04:17;14.65;;;8.80;;
32697;SDS011;19087;51.062;3.754;2022-07-11T04:06:42;18.83;;;10.15;;
32697;SDS011;19087;51.062;3.754;2022-07-11T04:09:09;11.55;;;9.15;;
32697;SDS011;19087;51.062;3.754;2022-07-11T04:11:35;12.45;;;9.50;;
32697;SDS011;19087;51.062;3.754;2022-07-11T04:14:01;13.50;;;10.57;;
32697;SDS011;19087;51.062;3.754;2022-07-11T04:16:27;16.55;;;9.82;;
32697;SDS011;19087;51.062;3.754;2022-07-11T04:18:52;13.00;;;10.55;;
32697;SDS011;19087;51.062;3.754;2022-07-11T04:21:18;15.57;;;10.00;;
32697;SDS011;19087;51.062;3.754;2022-07-11T04:23:44;12.75;;;10.50;;
32697;SDS011;19087;51.062;3.754;2022-07-11T04:26:10;15.18;;;9.98;;
32697;SDS011;19087;51.062;3.754;2022-07-11T04:28:35;14.07;;;11.00;;
32697;SDS011;19087;51.062;3.754;2022-07-11T04:31:01;14.93;;;10.80;;
32697;SDS011;19087;51.062;3.754;2022-07-11T04:33:27;13.60;;;10.38;;
32697;SDS011;19087;51.062;3.754;2022-07-11T04:35:54;19.83;;;11.73;;
32697;SDS011;19087;51.062;3.754;2022-07-11T04:38:20;12.32;;;10.10;;
32697;SDS011;19087;51.062;3.754;2022-07-11T04:40:49;14.73;;;9.93;;
32697;SDS011;19087;51.062;3.754;2022-07-11T04:43:15;14.40;;;10.82;;
32697;SDS011;19087;51.062;3.754;2022-07-11T04:45:41;18.48;;;11.38;;
32697;SDS011;19087;51.062;3.754;2022-07-11T04:48:07;13.75;;;11.98;;
32697;SDS011;19087;51.062;3.754;2022-07-11T04:50:33;13.93;;;10.35;;
32697;SDS011;19087;51.062;3.754;2022-07-11T04:52:58;15.40;;;10.55;;
32697;SDS011;19087;51.062;3.754;2022-07-11T04:55:24;12.10;;;10.82;;
32697;SDS011;19087;51.062;3.754;2022-07-11T04:57:50;12.88;;;11.35;;
32697;SDS011;19087;51.062;3.754;2022-07-11T05:00:16;14.02;;;12.60;;
32697;SDS011;19087;51.062;3.754;2022-07-11T05:02:43;18.02;;;13.60;;
32697;SDS011;19087;51.062;3.754;2022-07-11T05:05:09;15.80;;;12.38;;
32697;SDS011;19087;51.062;3.754;2022-07-11T05:07:35;14.27;;;11.80;;
32697;SDS011;19087;51.062;3.754;2022-07-11T05:10:01;13.25;;;10.10;;
32697;SDS011;19087;51.062;3.754;2022-07-11T05:12:27;20.45;;;12.93;;
32697;SDS011;19087;51.062;3.754;2022-07-11T05:14:53;13.07;;;11.05;;
32697;SDS011;19087;51.062;3.754;2022-07-11T05:17:20;17.67;;;13.77;;
32697;SDS011;19087;51.062;3.754;2022-07-11T05:19:46;22.52;;;14.27;;
32697;SDS011;19087;51.062;3.754;2022-07-11T05:22:11;20.70;;;16.63;;
32697;SDS011;19087;51.062;3.754;2022-07-11T05:24:38;20.45;;;15.52;;
32697;SDS011;19087;51.062;3.754;2022-07-11T05:27:04;23.25;;;15.70;;
32697;SDS011;19087;51.062;3.754;2022-07-11T05:29:30;22.35;;;15.38;;
32697;SDS011;19087;51.062;3.754;2022-07-11T05:31:55;20.98;;;15.85;;
32697;SDS011;19087;51.062;3.754;2022-07-11T05:34:21;20.85;;;14.65;;
32697;SDS011;19087;51.062;3.754;2022-07-11T05:36:47;23.20;;;15.85;;
32697;SDS011;19087;51.062;3.754;2022-07-11T05:39:12;22.33;;;14.73;;
32697;SDS011;19087;51.062;3.754;2022-07-11T05:41:38;15.85;;;12.85;;
32697;SDS011;19087;51.062;3.754;2022-07-11T05:44:04;25.05;;;13.80;;
32697;SDS011;19087;51.062;3.754;2022-07-11T05:46:30;14.85;;;11.80;;
32697;SDS011;19087;51.062;3.754;2022-07-11T05:48:56;15.60;;;11.75;;
32697;SDS011;19087;51.062;3.754;2022-07-11T05:51:22;19.83;;;11.35;;
32697;SDS011;19087;51.062;3.754;2022-07-11T05:53:48;14.27;;;9.88;;
32697;SDS011;19087;51.062;3.754;2022-07-11T05:56:14;11.20;;;8.30;;
32697;SDS011;19087;51.062;3.754;2022-07-11T05:58:42;12.52;;;7.75;;
32697;SDS011;19087;51.062;3.754;2022-07-11T06:01:08;16.70;;;8.82;;
32697;SDS011;19087;51.062;3.754;2022-07-11T06:03:33;9.32;;;7.63;;
32697;SDS011;19087;51.062;3.754;2022-07-11T06:05:59;13.63;;;8.10;;
32697;SDS011;19087;51.062;3.754;2022-07-11T06:08:29;9.70;;;8.07;;
32697;SDS011;19087;51.062;3.754;2022-07-11T06:11:14;11.93;;;7.35;;
32697;SDS011;19087;51.062;3.754;2022-07-11T06:13:40;9.32;;;7.00;;
32697;SDS011;19087;51.062;3.754;2022-07-11T06:16:07;11.35;;;6.25;;
32697;SDS011;19087;51.062;3.754;2022-07-11T06:18:36;10.05;;;6.00;;
32697;SDS011;19087;51.062;3.754;2022-07-11T06:21:03;10.50;;;5.20;;
32697;SDS011;19087;51.062;3.754;2022-07-11T06:23:30;7.95;;;5.28;;
32697;SDS011;19087;51.062;3.754;2022-07-11T06:25:57;11.23;;;5.57;;
32697;SDS011;19087;51.062;3.754;2022-07-11T06:28:23;11.48;;;5.88;;
32697;SDS011;19087;51.062;3.754;2022-07-11T06:30:49;12.52;;;6.32;;
32697;SDS011;19087;51.062;3.754;2022-07-11T06:33:16;10.68;;;5.10;;
32697;SDS011;19087;51.062;3.754;2022-07-11T06:35:42;10.45;;;5.10;;
32697;SDS011;19087;51.062;3.754;2022-07-11T06:38:11;9.98;;;5.57;;
32697;SDS011;19087;51.062;3.754;2022-07-11T06:40:37;9.60;;;4.97;;
32697;SDS011;19087;51.062;3.754;2022-07-11T06:43:05;7.80;;;4.32;;
32697;SDS011;19087;51.062;3.754;2022-07-11T06:45:31;7.25;;;3.20;;
32697;SDS011;19087;51.062;3.754;2022-07-11T06:47:58;6.00;;;4.40;;
32697;SDS011;19087;51.062;3.754;2022-07-11T06:50:24;6.47;;;3.63;;
32697;SDS011;19087;51.062;3.754;2022-07-11T06:52:50;10.48;;;3.45;;
32697;SDS011;19087;51.062;3.754;2022-07-11T06:55:16;4.80;;;3.55;;
32697;SDS011;19087;51.062;3.754;2022-07-11T06:57:41;7.90;;;3.58;;
32697;SDS011;19087;51.062;3.754;2022-07-11T07:00:07;7.10;;;4.00;;
32697;SDS011;19087;51.062;3.754;2022-07-11T07:02:34;4.55;;;2.95;;
32697;SDS011;19087;51.062;3.754;2022-07-11T07:05:00;5.30;;;3.13;;
32697;SDS011;19087;51.062;3.754;2022-07-11T07:07:27;4.38;;;3.50;;
32697;SDS011;19087;51.062;3.754;2022-07-11T07:09:53;5.47;;;3.50;;
32697;SDS011;19087;51.062;3.754;2022-07-11T07:12:19;4.93;;;3.38;;
32697;SDS011;19087;51.062;3.754;2022-07-11T07:14:46;6.10;;;3.20;;
32697;SDS011;19087;51.062;3.754;2022-07-11T07:17:12;6.47;;;4.05;;
32697;SDS011;19087;51.062;3.754;2022-07-11T07:19:37;4.28;;;3.00;;
32697;SDS011;19087;51.062;3.754;2022-07-11T07:22:04;4.85;;;3.30;;
32697;SDS011;19087;51.062;3.754;2022-07-11T07:24:31;6.25;;;3.50;;
32697;SDS011;19087;51.062;3.754;2022-07-11T07:26:57;7.00;;;3.05;;
32697;SDS011;19087;51.062;3.754;2022-07-11T07:29:23;4.28;;;2.78;;
32697;SDS011;19087;51.062;3.754;2022-07-11T07:31:50;4.90;;;2.42;;
32697;SDS011;19087;51.062;3.754;2022-07-11T07:34:19;6.00;;;3.63;;
32697;SDS011;19087;51.062;3.754;2022-07-11T07:36:45;8.02;;;3.47;;
32697;SDS011;19087;51.062;3.754;2022-07-11T07:39:11;4.35;;;3.20;;
32697;SDS011;19087;51.062;3.754;2022-07-11T07:41:37;3.30;;;2.67;;
32697;SDS011;19087;51.062;3.754;2022-07-11T07:44:02;5.78;;;2.85;;
32697;SDS011;19087;51.062;3.754;2022-07-11T07:46:28;3.42;;;2.60;;
32697;SDS011;19087;51.062;3.754;2022-07-11T07:48:54;4.95;;;3.13;;
32697;SDS011;19087;51.062;3.754;2022-07-11T07:51:19;8.60;;;3.88;;
32697;SDS011;19087;51.062;3.754;2022-07-11T07:53:46;8.52;;;3.47;;
32697;SDS011;19087;51.062;3.754;2022-07-11T07:56:12;6.00;;;4.45;;
32697;SDS011;19087;51.062;3.754;2022-07-11T07:58:38;6.22;;;4.68;;
32697;SDS011;19087;51.062;3.754;2022-07-11T08:01:04;2.72;;;2.15;;
32697;SDS011;19087;51.062;3.754;2022-07-11T08:03:49;3.47;;;2.90;;
32697;SDS011;19087;51.062;3.754;2022-07-11T08:06:15;3.65;;;3.10;;
32697;SDS011;19087;51.062;3.754;2022-07-11T08:08:40;7.65;;;2.67;;
32697;SDS011;19087;51.062;3.754;2022-07-11T08:11:06;6.00;;;3.88;;
32697;SDS011;19087;51.062;3.754;2022-07-11T08:13:32;4.68;;;3.40;;
32697;SDS011;19087;51.062;3.754;2022-07-11T08:15:57;5.82;;;3.78;;
32697;SDS011;19087;51.062;3.754;2022-07-11T08:18:23;6.68;;;4.20;;
32697;SDS011;19087;51.062;3.754;2022-07-11T08:20:49;6.38;;;4.78;;
32697;SDS011;19087;51.062;3.754;2022-07-11T08:23:15;6.18;;;4.63;;
32697;SDS011;19087;51.062;3.754;2022-07-11T08:25:40;4.97;;;3.67;;
32697;SDS011;19087;51.062;3.754;2022-07-11T08:28:06;4.95;;;3.00;;
32697;SDS011;19087;51.062;3.754;2022-07-11T08:30:32;6.00;;;3.45;;
32697;SDS011;19087;51.062;3.754;2022-07-11T08:32:58;6.43;;;4.50;;
32697;SDS011;19087;51.062;3.754;2022-07-11T08:35:24;4.25;;;3.85;;
32697;SDS011;19087;51.062;3.754;2022-07-11T08:37:49;6.10;;;4.60;;
32697;SDS011;19087;51.062;3.754;2022-07-11T08:40:16;9.25;;;4.82;;
32697;SDS011;19087;51.062;3.754;2022-07-11T08:42:44;5.78;;;4.72;;
32697;SDS011;19087;51.062;3.754;2022-07-11T08:45:13;6.72;;;4.40;;
32697;SDS011;19087;51.062;3.754;2022-07-11T08:47:40;5.93;;;4.53;;
32697;SDS011;19087;51.062;3.754;2022-07-11T08:50:06;4.40;;;3.67;;
32697;SDS011;19087;51.062;3.754;2022-07-11T08:52:33;7.57;;;3.72;;
32697;SDS011;19087;51.062;3.754;2022-07-11T08:54:59;5.68;;;4.00;;
32697;SDS011;19087;51.062;3.754;2022-07-11T08:57:25;6.50;;;3.72;;
32697;SDS011;19087;51.062;3.754;2022-07-11T08:59:52;5.35;;;4.07;;
32697;SDS011;19087;51.062;3.754;2022-07-11T09:02:20;7.95;;;4.07;;
32697;SDS011;19087;51.062;3.754;2022-07-11T09:04:48;6.28;;;4.30;;
32697;SDS011;19087;51.062;3.754;2022-07-11T09:07:14;6.63;;;3.85;;
32697;SDS011;19087;51.062;3.754;2022-07-11T09:09:39;6.50;;;4.28;;
32697;SDS011;19087;51.062;3.754;2022-07-11T09:12:12;8.45;;;3.58;;
32697;SDS011;19087;51.062;3.754;2022-07-11T09:14:44;5.60;;;3.28;;
32697;SDS011;19087;51.062;3.754;2022-07-11T09:17:12;6.28;;;4.72;;
32697;SDS011;19087;51.062;3.754;2022-07-11T09:19:38;8.20;;;5.38;;
32697;SDS011;19087;51.062;3.754;2022-07-11T09:22:05;6.40;;;5.38;;
32697;SDS011;19087;51.062;3.754;2022-07-11T09:25:02;5.18;;;4.15;;
32697;SDS011;19087;51.062;3.754;2022-07-11T09:27:48;12.63;;;5.53;;
32697;SDS011;19087;51.062;3.754;2022-07-11T09:30:22;6.85;;;4.30;;
32697;SDS011;19087;51.062;3.754;2022-07-11T09:32:53;5.45;;;3.50;;
32697;SDS011;19087;51.062;3.754;2022-07-11T09:35:22;5.78;;;3.95;;
32697;SDS011;19087;51.062;3.754;2022-07-11T09:37:49;6.55;;;4.57;;
32697;SDS011;19087;51.062;3.754;2022-07-11T09:40:15;8.07;;;4.57;;
32697;SDS011;19087;51.062;3.754;2022-07-11T09:42:49;9.07;;;5.10;;
32697;SDS011;19087;51.062;3.754;2022-07-11T09:45:16;8.43;;;4.10;;
32697;SDS011;19087;51.062;3.754;2022-07-11T09:47:46;11.45;;;4.35;;
32697;SDS011;19087;51.062;3.754;2022-07-11T09:50:17;6.82;;;4.25;;
32697;SDS011;19087;51.062;3.754;2022-07-11T09:52:57;8.48;;;4.07;;
32697;SDS011;19087;51.062;3.754;2022-07-11T09:55:25;10.60;;;4.40;;
32697;SDS011;19087;51.062;3.754;2022-07-11T09:57:51;7.30;;;4.93;;
32697;SDS011;19087;51.062;3.754;2022-07-11T10:00:17;8.07;;;4.00;;
32697;SDS011;19087;51.062;3.754;2022-07-11T10:02:43;9.77;;;4.07;;
32697;SDS011;19087;51.062;3.754;2022-07-11T10:05:10;10.20;;;3.90;;
32697;SDS011;19087;51.062;3.754;2022-07-11T10:07:37;7.10;;;4.00;;
32697;SDS011;19087;51.062;3.754;2022-07-11T10:10:06;8.38;;;3.50;;
32697;SDS011;19087;51.062;3.754;2022-07-11T10:12:32;4.00;;;3.33;;
32697;SDS011;19087;51.062;3.754;2022-07-11T10:15:02;7.55;;;4.47;;
32697;SDS011;19087;51.062;3.754;2022-07-11T10:20:39;10.38;;;4.28;;
32697;SDS011;19087;51.062;3.754;2022-07-11T10:26:42;5.65;;;3.17;;
32697;SDS011;19087;51.062;3.754;2022-07-11T10:29:19;6.85;;;3.85;;
32697;SDS011;19087;51.062;3.754;2022-07-11T10:32:03;4.78;;;3.50;;
32697;SDS011;19087;51.062;3.754;2022-07-11T10:34:33;8.45;;;3.83;;
32697;SDS011;19087;51.062;3.754;2022-07-11T10:37:00;3.40;;;3.10;;
32697;SDS011;19087;51.062;3.754;2022-07-11T10:39:27;5.22;;;3.10;;
32697;SDS011;19087;51.062;3.754;2022-07-11T10:41:54;4.00;;;3.50;;
32697;SDS011;19087;51.062;3.754;2022-07-11T10:44:21;9.52;;;3.25;;
32697;SDS011;19087;51.062;3.754;2022-07-11T10:46:47;4.97;;;3.22;;
32697;SDS011;19087;51.062;3.754;2022-07-11T10:54:31;7.60;;;3.90;;
32697;SDS011;19087;51.062;3.754;2022-07-11T10:57:27;8.10;;;3.35;;
32697;SDS011;19087;51.062;3.754;2022-07-11T10:59:59;4.78;;;3.28;;
32697;SDS011;19087;51.062;3.754;2022-07-11T11:02:27;5.03;;;3.05;;
32697;SDS011;19087;51.062;3.754;2022-07-11T11:04:59;7.05;;;2.45;;
32697;SDS011;19087;51.062;3.754;2022-07-11T11:07:34;4.00;;;2.83;;
32697;SDS011;19087;51.062;3.754;2022-07-11T11:10:44;2.90;;;2.20;;
32697;SDS011;19087;51.062;3.754;2022-07-11T11:23:38;4.03;;;2.47;;
32697;SDS011;19087;51.062;3.754;2022-07-11T11:26:11;10.95;;;3.08;;
32697;SDS011;19087;51.062;3.754;2022-07-11T11:31:30;3.50;;;2.75;;
32697;SDS011;19087;51.062;3.754;2022-07-11T11:33:56;6.45;;;3.15;;
32697;SDS011;19087;51.062;3.754;2022-07-11T11:36:23;8.85;;;3.47;;
32697;SDS011;19087;51.062;3.754;2022-07-11T11:38:50;3.35;;;2.83;;
32697;SDS011;19087;51.062;3.754;2022-07-11T11:41:26;6.22;;;2.83;;
32697;SDS011;19087;51.062;3.754;2022-07-11T11:43:55;5.85;;;2.80;;
32697;SDS011;19087;51.062;3.754;2022-07-11T11:46:31;9.82;;;2.88;;
32697;SDS011;19087;51.062;3.754;2022-07-11T11:49:03;8.60;;;3.03;;
32697;SDS011;19087;51.062;3.754;2022-07-11T11:51:30;5.97;;;3.53;;
32697;SDS011;19087;51.062;3.754;2022-07-11T11:54:04;4.45;;;3.00;;
32697;SDS011;19087;51.062;3.754;2022-07-11T11:56:34;21.58;;;3.70;;
32697;SDS011;19087;51.062;3.754;2022-07-11T12:01:38;5.03;;;2.50;;
32697;SDS011;19087;51.062;3.754;2022-07-11T12:04:06;4.47;;;2.33;;
32697;SDS011;19087;51.062;3.754;2022-07-11T12:06:37;5.63;;;2.35;;
32697;SDS011;19087;51.062;3.754;2022-07-11T12:11:36;8.10;;;2.53;;
32697;SDS011;19087;51.062;3.754;2022-07-11T12:14:03;4.15;;;1.77;;
32697;SDS011;19087;51.062;3.754;2022-07-11T12:16:32;7.22;;;3.15;;
32697;SDS011;19087;51.062;3.754;2022-07-11T12:19:07;6.82;;;2.90;;
32697;SDS011;19087;51.062;3.754;2022-07-11T12:21:38;10.90;;;2.83;;
32697;SDS011;19087;51.062;3.754;2022-07-11T12:24:07;10.30;;;2.28;;
32697;SDS011;19087;51.062;3.754;2022-07-11T12:26:37;8.27;;;3.28;;
32697;SDS011;19087;51.062;3.754;2022-07-11T12:31:43;5.82;;;2.90;;
32697;SDS011;19087;51.062;3.754;2022-07-11T12:34:23;4.90;;;2.47;;
32697;SDS011;19087;51.062;3.754;2022-07-11T12:36:50;7.70;;;2.88;;
32697;SDS011;19087;51.062;3.754;2022-07-11T12:39:39;3.13;;;2.22;;
32697;SDS011;19087;51.062;3.754;2022-07-11T12:44:58;3.30;;;1.92;;
32697;SDS011;19087;51.062;3.754;2022-07-11T12:47:24;5.22;;;2.28;;
32697;SDS011;19087;51.062;3.754;2022-07-11T12:49:55;3.58;;;2.00;;
32697;SDS011;19087;51.062;3.754;2022-07-11T12:52:21;6.20;;;2.63;;
32697;SDS011;19087;51.062;3.754;2022-07-11T12:54:47;4.53;;;2.35;;
32697;SDS011;19087;51.062;3.754;2022-07-11T12:57:16;6.60;;;2.85;;
32697;SDS011;19087;51.062;3.754;2022-07-11T12:59:42;6.22;;;2.10;;
32697;SDS011;19087;51.062;3.754;2022-07-11T13:02:09;9.82;;;2.65;;
32697;SDS011;19087;51.062;3.754;2022-07-11T13:04:37;4.57;;;1.80;;
32697;SDS011;19087;51.062;3.754;2022-07-11T13:10:18;3.28;;;1.90;;
32697;SDS011;19087;51.062;3.754;2022-07-11T13:12:49;2.25;;;1.70;;
32697;SDS011;19087;51.062;3.754;2022-07-11T13:15:16;7.03;;;1.70;;
32697;SDS011;19087;51.062;3.754;2022-07-11T13:20:23;6.57;;;2.15;;
32697;SDS011;19087;51.062;3.754;2022-07-11T13:22:57;7.53;;;1.98;;
32697;SDS011;19087;51.062;3.754;2022-07-11T13:25:25;7.90;;;2.50;;
32697;SDS011;19087;51.062;3.754;2022-07-11T13:27:53;4.20;;;1.90;;
32697;SDS011;19087;51.062;3.754;2022-07-11T13:30:23;4.50;;;2.60;;
32697;SDS011;19087;51.062;3.754;2022-07-11T13:32:57;3.03;;;1.55;;
32697;SDS011;19087;51.062;3.754;2022-07-11T13:35:23;7.07;;;2.03;;
32697;SDS011;19087;51.062;3.754;2022-07-11T13:37:49;9.70;;;1.90;;
32697;SDS011;19087;51.062;3.754;2022-07-11T13:40:17;5.82;;;1.90;;
32697;SDS011;19087;51.062;3.754;2022-07-11T13:42:45;4.07;;;2.13;;
32697;SDS011;19087;51.062;3.754;2022-07-11T13:45:14;5.05;;;2.30;;
32697;SDS011;19087;51.062;3.754;2022-07-11T13:47:40;6.32;;;2.13;;
32697;SDS011;19087;51.062;3.754;2022-07-11T13:50:09;4.03;;;2.30;;
32697;SDS011;19087;51.062;3.754;2022-07-11T13:52:35;5.35;;;2.35;;
32697;SDS011;19087;51.062;3.754;2022-07-11T13:55:01;4.15;;;1.92;;
32697;SDS011;19087;51.062;3.754;2022-07-11T13:57:29;5.82;;;2.00;;
32697;SDS011;19087;51.062;3.754;2022-07-11T13:59:55;5.68;;;2.15;;
32697;SDS011;19087;51.062;3.754;2022-07-11T14:02:22;3.67;;;1.70;;
32697;SDS011;19087;51.062;3.754;2022-07-11T14:04:47;2.35;;;1.75;;
32697;SDS011;19087;51.062;3.754;2022-07-11T14:07:13;2.03;;;1.30;;
32697;SDS011;19087;51.062;3.754;2022-07-11T14:09:39;5.15;;;1.52;;
32697;SDS011;19087;51.062;3.754;2022-07-11T14:12:05;3.42;;;1.20;;
32697;SDS011;19087;51.062;3.754;2022-07-11T14:14:32;2.40;;;1.45;;
32697;SDS011;19087;51.062;3.754;2022-07-11T14:17:01;4.07;;;1.70;;
32697;SDS011;19087;51.062;3.754;2022-07-11T14:19:28;4.35;;;1.30;;
32697;SDS011;19087;51.062;3.754;2022-07-11T14:21:54;1.83;;;1.13;;
32697;SDS011;19087;51.062;3.754;2022-07-11T14:24:20;4.97;;;1.58;;
32697;SDS011;19087;51.062;3.754;2022-07-11T14:26:46;5.10;;;1.35;;
32697;SDS011;19087;51.062;3.754;2022-07-11T14:29:14;2.03;;;1.27;;
32697;SDS011;19087;51.062;3.754;2022-07-11T14:31:40;7.90;;;1.60;;
32697;SDS011;19087;51.062;3.754;2022-07-11T14:34:06;2.97;;;1.50;;
32697;SDS011;19087;51.062;3.754;2022-07-11T14:36:33;3.85;;;1.48;;
32697;SDS011;19087;51.062;3.754;2022-07-11T14:39:00;3.88;;;1.48;;
32697;SDS011;19087;51.062;3.754;2022-07-11T14:41:25;2.33;;;1.35;;
32697;SDS011;19087;51.062;3.754;2022-07-11T14:43:51;3.72;;;1.48;;
32697;SDS011;19087;51.062;3.754;2022-07-11T14:46:17;5.55;;;1.23;;
32697;SDS011;19087;51.062;3.754;2022-07-11T14:48:43;7.25;;;1.50;;
32697;SDS011;19087;51.062;3.754;2022-07-11T14:51:09;4.82;;;1.30;;
32697;SDS011;19087;51.062;3.754;2022-07-11T14:53:35;2.63;;;1.20;;
32697;SDS011;19087;51.062;3.754;2022-07-11T14:56:02;2.67;;;1.33;;
32697;SDS011;19087;51.062;3.754;2022-07-11T14:58:29;2.63;;;1.10;;
32697;SDS011;19087;51.062;3.754;2022-07-11T15:00:55;7.22;;;1.45;;
32697;SDS011;19087;51.062;3.754;2022-07-11T15:03:21;3.50;;;1.40;;
32697;SDS011;19087;51.062;3.754;2022-07-11T15:06:02;3.90;;;1.13;;
32697;SDS011;19087;51.062;3.754;2022-07-11T15:08:29;3.25;;;1.17;;
32697;SDS011;19087;51.062;3.754;2022-07-11T15:11:13;3.22;;;1.40;;
32697;SDS011;19087;51.062;3.754;2022-07-11T15:14:08;1.58;;;0.90;;
32697;SDS011;19087;51.062;3.754;2022-07-11T15:16:35;3.83;;;1.13;;
32697;SDS011;19087;51.062;3.754;2022-07-11T15:19:02;4.57;;;1.30;;
32697;SDS011;19087;51.062;3.754;2022-07-11T15:21:32;5.00;;;1.42;;
32697;SDS011;19087;51.062;3.754;2022-07-11T15:23:59;2.05;;;1.13;;
32697;SDS011;19087;51.062;3.754;2022-07-11T15:26:25;3.97;;;1.02;;
32697;SDS011;19087;51.062;3.754;2022-07-11T15:28:52;3.55;;;0.98;;